sensor_id;sensor_type;location;lat;lon;timestamp;temperature;humidity
6293;DHT22;3179;54.350;10.102;2023-08-17T00:02:10;18.50;99.90
6293;DHT22;3179;54.350;10.102;2023-08-17T00:04:37;18.50;99.90
6293;DHT22;3179;54.350;10.102;2023-08-17T00:07:04;18.50;99.90
6293;DHT22;3179;54.350;10.102;2023-08-17T00:09:31;18.50;99.90
6293;DHT22;3179;54.350;10.102;2023-08-17T00:11:58;18.50;99.90
6293;DHT22;3179;54.350;10.102;2023-08-17T00:14:26;18.40;99.90
6293;DHT22;3179;54.350;10.102;2023-08-17T00:16:53;18.40;99.90
6293;DHT22;3179;54.350;10.102;2023-08-17T00:19:20;18.50;99.90
6293;DHT22;3179;54.350;10.102;2023-08-17T00:21:46;18.50;99.90
6293;DHT22;3179;54.350;10.102;2023-08-17T00:24:13;18.50;99.90
6293;DHT22;3179;54.350;10.102;2023-08-17T00:26:40;18.50;99.90
6293;DHT22;3179;54.350;10.102;2023-08-17T00:29:07;18.40;99.90
6293;DHT22;3179;54.350;10.102;2023-08-17T00:31:35;18.40;99.90
6293;DHT22;3179;54.350;10.102;2023-08-17T00:34:01;18.40;99.90
6293;DHT22;3179;54.350;10.102;2023-08-17T00:36:28;18.40;99.90
6293;DHT22;3179;54.350;10.102;2023-08-17T00:38:55;18.30;99.90
6293;DHT22;3179;54.350;10.102;2023-08-17T00:41:22;18.30;99.90
6293;DHT22;3179;54.350;10.102;2023-08-17T00:43:48;18.30;99.90
6293;DHT22;3179;54.350;10.102;2023-08-17T00:46:15;18.30;99.90
6293;DHT22;3179;54.350;10.102;2023-08-17T00:48:44;18.30;99.90
6293;DHT22;3179;54.350;10.102;2023-08-17T00:51:10;18.30;99.90
6293;DHT22;3179;54.350;10.102;2023-08-17T00:53:37;18.30;99.90
6293;DHT22;3179;54.350;10.102;2023-08-17T00:56:04;18.30;99.90
6293;DHT22;3179;54.350;10.102;2023-08-17T00:58:32;18.30;99.90
6293;DHT22;3179;54.350;10.102;2023-08-17T01:00:59;18.30;99.90
6293;DHT22;3179;54.350;10.102;2023-08-17T01:03:28;18.30;99.90
6293;DHT22;3179;54.350;10.102;2023-08-17T01:05:56;18.30;99.90
6293;DHT22;3179;54.350;10.102;2023-08-17T01:08:24;18.30;99.90
6293;DHT22;3179;54.350;10.102;2023-08-17T01:10:55;18.30;99.90
6293;DHT22;3179;54.350;10.102;2023-08-17T01:13:28;18.30;99.90
6293;DHT22;3179;54.350;10.102;2023-08-17T01:15:58;18.20;99.90
6293;DHT22;3179;54.350;10.102;2023-08-17T01:18:31;18.20;99.90
6293;DHT22;3179;54.350;10.102;2023-08-17T01:21:00;18.20;99.90
6293;DHT22;3179;54.350;10.102;2023-08-17T01:23:29;18.20;99.90
6293;DHT22;3179;54.350;10.102;2023-08-17T01:25:56;18.20;99.90
6293;DHT22;3179;54.350;10.102;2023-08-17T01:28:23;18.20;99.90
6293;DHT22;3179;54.350;10.102;2023-08-17T01:30:55;18.20;99.90
6293;DHT22;3179;54.350;10.102;2023-08-17T01:33:26;18.20;99.90
6293;DHT22;3179;54.350;10.102;2023-08-17T01:36:01;18.20;99.90
6293;DHT22;3179;54.350;10.102;2023-08-17T01:38:33;18.20;99.90
6293;DHT22;3179;54.350;10.102;2023-08-17T01:41:02;18.20;99.90
6293;DHT22;3179;54.350;10.102;2023-08-17T01:43:30;18.20;99.90
6293;DHT22;3179;54.350;10.102;2023-08-17T01:45:57;18.20;99.90
6293;DHT22;3179;54.350;10.102;2023-08-17T01:48:23;18.20;99.90
6293;DHT22;3179;54.350;10.102;2023-08-17T01:50:50;18.20;99.90
6293;DHT22;3179;54.350;10.102;2023-08-17T01:53:17;18.20;99.90
6293;DHT22;3179;54.350;10.102;2023-08-17T01:55:45;18.20;99.90
6293;DHT22;3179;54.350;10.102;2023-08-17T01:58:12;18.20;99.90
6293;DHT22;3179;54.350;10.102;2023-08-17T02:00:38;18.20;99.90
6293;DHT22;3179;54.350;10.102;2023-08-17T02:03:05;18.20;99.90
6293;DHT22;3179;54.350;10.102;2023-08-17T02:05:32;18.20;99.90
6293;DHT22;3179;54.350;10.102;2023-08-17T02:07:59;18.20;99.90
6293;DHT22;3179;54.350;10.102;2023-08-17T02:10:25;18.20;99.90
6293;DHT22;3179;54.350;10.102;2023-08-17T02:12:53;18.20;99.90
6293;DHT22;3179;54.350;10.102;2023-08-17T02:15:20;18.20;99.90
6293;DHT22;3179;54.350;10.102;2023-08-17T02:17:47;18.20;99.90
6293;DHT22;3179;54.350;10.102;2023-08-17T02:20:14;18.20;99.90
6293;DHT22;3179;54.350;10.102;2023-08-17T02:22:41;18.20;99.90
6293;DHT22;3179;54.350;10.102;2023-08-17T02:25:08;18.20;99.90
6293;DHT22;3179;54.350;10.102;2023-08-17T02:27:35;18.20;99.90
6293;DHT22;3179;54.350;10.102;2023-08-17T02:30:04;18.20;99.90
6293;DHT22;3179;54.350;10.102;2023-08-17T02:32:30;18.20;99.90
6293;DHT22;3179;54.350;10.102;2023-08-17T02:34:57;18.20;99.90
6293;DHT22;3179;54.350;10.102;2023-08-17T02:37:24;18.20;99.90
6293;DHT22;3179;54.350;10.102;2023-08-17T02:39:51;18.20;99.90
6293;DHT22;3179;54.350;10.102;2023-08-17T02:42:17;18.20;99.90
6293;DHT22;3179;54.350;10.102;2023-08-17T02:44:44;18.20;99.90
6293;DHT22;3179;54.350;10.102;2023-08-17T02:47:12;18.20;99.90
6293;DHT22;3179;54.350;10.102;2023-08-17T02:49:39;18.20;99.90
6293;DHT22;3179;54.350;10.102;2023-08-17T02:52:07;18.20;99.90
6293;DHT22;3179;54.350;10.102;2023-08-17T02:54:34;18.20;99.90
6293;DHT22;3179;54.350;10.102;2023-08-17T02:57:00;18.20;99.90
6293;DHT22;3179;54.350;10.102;2023-08-17T02:59:27;18.10;99.90
6293;DHT22;3179;54.350;10.102;2023-08-17T03:01:54;18.10;99.90
6293;DHT22;3179;54.350;10.102;2023-08-17T03:04:22;18.10;99.90
6293;DHT22;3179;54.350;10.102;2023-08-17T03:06:49;18.10;99.90
6293;DHT22;3179;54.350;10.102;2023-08-17T03:09:16;18.10;99.90
6293;DHT22;3179;54.350;10.102;2023-08-17T03:11:43;18.20;99.90
6293;DHT22;3179;54.350;10.102;2023-08-17T03:14:10;18.20;99.90
6293;DHT22;3179;54.350;10.102;2023-08-17T03:16:36;18.10;99.90
6293;DHT22;3179;54.350;10.102;2023-08-17T03:19:04;18.10;99.90
6293;DHT22;3179;54.350;10.102;2023-08-17T03:21:34;18.10;99.90
6293;DHT22;3179;54.350;10.102;2023-08-17T03:24:01;18.10;99.90
6293;DHT22;3179;54.350;10.102;2023-08-17T03:26:28;18.10;99.90
6293;DHT22;3179;54.350;10.102;2023-08-17T03:28:55;18.10;99.90
6293;DHT22;3179;54.350;10.102;2023-08-17T03:31:22;18.10;99.90
6293;DHT22;3179;54.350;10.102;2023-08-17T03:33:48;18.10;99.90
6293;DHT22;3179;54.350;10.102;2023-08-17T03:36:15;18.10;99.90
6293;DHT22;3179;54.350;10.102;2023-08-17T03:38:43;18.10;99.90
6293;DHT22;3179;54.350;10.102;2023-08-17T03:41:10;18.10;99.90
6293;DHT22;3179;54.350;10.102;2023-08-17T03:43:37;18.10;99.90
6293;DHT22;3179;54.350;10.102;2023-08-17T03:46:04;18.10;99.90
6293;DHT22;3179;54.350;10.102;2023-08-17T03:48:31;18.10;99.90
6293;DHT22;3179;54.350;10.102;2023-08-17T03:50:58;18.10;99.90
6293;DHT22;3179;54.350;10.102;2023-08-17T03:53:26;18.10;99.90
6293;DHT22;3179;54.350;10.102;2023-08-17T03:55:55;18.10;99.90
6293;DHT22;3179;54.350;10.102;2023-08-17T03:58:21;18.00;99.90
6293;DHT22;3179;54.350;10.102;2023-08-17T04:00:52;18.10;99.90
6293;DHT22;3179;54.350;10.102;2023-08-17T04:03:19;18.10;99.90
6293;DHT22;3179;54.350;10.102;2023-08-17T04:05:45;18.10;99.90
6293;DHT22;3179;54.350;10.102;2023-08-17T04:08:12;18.00;99.90
6293;DHT22;3179;54.350;10.102;2023-08-17T04:10:39;18.00;99.90
6293;DHT22;3179;54.350;10.102;2023-08-17T04:13:07;18.10;99.90
6293;DHT22;3179;54.350;10.102;2023-08-17T04:15:34;18.00;99.90
6293;DHT22;3179;54.350;10.102;2023-08-17T04:18:01;18.10;99.90
6293;DHT22;3179;54.350;10.102;2023-08-17T04:20:27;18.00;99.90
6293;DHT22;3179;54.350;10.102;2023-08-17T04:22:54;18.10;99.90
6293;DHT22;3179;54.350;10.102;2023-08-17T04:25:21;18.10;99.90
6293;DHT22;3179;54.350;10.102;2023-08-17T04:27:48;18.00;99.90
6293;DHT22;3179;54.350;10.102;2023-08-17T04:30:16;18.10;99.90
6293;DHT22;3179;54.350;10.102;2023-08-17T04:32:43;18.10;99.90
6293;DHT22;3179;54.350;10.102;2023-08-17T04:35:09;18.10;99.90
6293;DHT22;3179;54.350;10.102;2023-08-17T04:37:37;18.10;99.90
6293;DHT22;3179;54.350;10.102;2023-08-17T04:40:05;18.10;99.90
6293;DHT22;3179;54.350;10.102;2023-08-17T04:42:32;18.10;99.90
6293;DHT22;3179;54.350;10.102;2023-08-17T04:44:58;18.10;99.90
6293;DHT22;3179;54.350;10.102;2023-08-17T04:47:27;18.10;99.90
6293;DHT22;3179;54.350;10.102;2023-08-17T04:49:54;18.10;99.90
6293;DHT22;3179;54.350;10.102;2023-08-17T04:52:21;18.10;99.90
6293;DHT22;3179;54.350;10.102;2023-08-17T04:54:48;18.10;99.90
6293;DHT22;3179;54.350;10.102;2023-08-17T04:57:15;18.10;99.90
6293;DHT22;3179;54.350;10.102;2023-08-17T04:59:43;18.10;99.90
6293;DHT22;3179;54.350;10.102;2023-08-17T05:02:10;18.10;99.90
6293;DHT22;3179;54.350;10.102;2023-08-17T05:04:38;18.10;99.90
6293;DHT22;3179;54.350;10.102;2023-08-17T05:07:05;18.10;99.90
6293;DHT22;3179;54.350;10.102;2023-08-17T05:09:32;18.10;99.90
6293;DHT22;3179;54.350;10.102;2023-08-17T05:11:59;18.20;99.90
6293;DHT22;3179;54.350;10.102;2023-08-17T05:14:25;18.20;99.90
6293;DHT22;3179;54.350;10.102;2023-08-17T05:16:52;18.10;99.90
6293;DHT22;3179;54.350;10.102;2023-08-17T05:19:19;18.20;99.90
6293;DHT22;3179;54.350;10.102;2023-08-17T05:21:47;18.20;99.90
6293;DHT22;3179;54.350;10.102;2023-08-17T05:24:15;18.20;99.90
6293;DHT22;3179;54.350;10.102;2023-08-17T05:26:43;18.30;99.90
6293;DHT22;3179;54.350;10.102;2023-08-17T05:29:10;18.30;99.90
6293;DHT22;3179;54.350;10.102;2023-08-17T05:31:37;18.30;99.90
6293;DHT22;3179;54.350;10.102;2023-08-17T05:34:03;18.20;99.90
6293;DHT22;3179;54.350;10.102;2023-08-17T05:36:30;18.30;99.90
6293;DHT22;3179;54.350;10.102;2023-08-17T05:38:58;18.30;99.90
6293;DHT22;3179;54.350;10.102;2023-08-17T05:41:25;18.30;99.90
6293;DHT22;3179;54.350;10.102;2023-08-17T05:43:52;18.30;99.90
6293;DHT22;3179;54.350;10.102;2023-08-17T05:46:18;18.40;99.90
6293;DHT22;3179;54.350;10.102;2023-08-17T05:48:45;18.40;99.90
6293;DHT22;3179;54.350;10.102;2023-08-17T05:51:12;18.40;99.90
6293;DHT22;3179;54.350;10.102;2023-08-17T05:53:39;18.40;99.90
6293;DHT22;3179;54.350;10.102;2023-08-17T05:56:07;18.40;99.90
6293;DHT22;3179;54.350;10.102;2023-08-17T05:58:33;18.40;99.90
6293;DHT22;3179;54.350;10.102;2023-08-17T06:01:06;18.40;99.90
6293;DHT22;3179;54.350;10.102;2023-08-17T06:03:33;18.50;99.90
6293;DHT22;3179;54.350;10.102;2023-08-17T06:06:01;18.40;99.90
6293;DHT22;3179;54.350;10.102;2023-08-17T06:08:27;18.50;99.90
6293;DHT22;3179;54.350;10.102;2023-08-17T06:10:55;18.50;99.90
6293;DHT22;3179;54.350;10.102;2023-08-17T06:13:23;18.50;99.90
6293;DHT22;3179;54.350;10.102;2023-08-17T06:15:50;18.50;99.90
6293;DHT22;3179;54.350;10.102;2023-08-17T06:18:17;18.50;99.90
6293;DHT22;3179;54.350;10.102;2023-08-17T06:20:45;18.50;99.90
6293;DHT22;3179;54.350;10.102;2023-08-17T06:23:13;18.60;99.90
6293;DHT22;3179;54.350;10.102;2023-08-17T06:25:40;18.60;99.90
6293;DHT22;3179;54.350;10.102;2023-08-17T06:28:07;18.60;99.90
6293;DHT22;3179;54.350;10.102;2023-08-17T06:30:35;18.60;99.90
6293;DHT22;3179;54.350;10.102;2023-08-17T06:33:02;18.60;99.90
6293;DHT22;3179;54.350;10.102;2023-08-17T06:35:30;18.60;99.90
6293;DHT22;3179;54.350;10.102;2023-08-17T06:37:57;18.60;99.90
6293;DHT22;3179;54.350;10.102;2023-08-17T06:40:24;18.60;99.90
6293;DHT22;3179;54.350;10.102;2023-08-17T06:42:51;18.60;99.90
6293;DHT22;3179;54.350;10.102;2023-08-17T06:45:19;18.70;99.90
6293;DHT22;3179;54.350;10.102;2023-08-17T06:47:49;18.70;99.90
6293;DHT22;3179;54.350;10.102;2023-08-17T06:50:16;18.70;99.90
6293;DHT22;3179;54.350;10.102;2023-08-17T06:52:43;18.70;99.90
6293;DHT22;3179;54.350;10.102;2023-08-17T06:55:10;18.70;99.90
6293;DHT22;3179;54.350;10.102;2023-08-17T06:57:37;18.70;99.90
6293;DHT22;3179;54.350;10.102;2023-08-17T07:00:04;18.70;99.90
6293;DHT22;3179;54.350;10.102;2023-08-17T07:02:32;18.80;99.90
6293;DHT22;3179;54.350;10.102;2023-08-17T07:05:01;18.80;99.90
6293;DHT22;3179;54.350;10.102;2023-08-17T07:07:29;18.80;99.90
6293;DHT22;3179;54.350;10.102;2023-08-17T07:09:57;18.80;99.90
6293;DHT22;3179;54.350;10.102;2023-08-17T07:12:23;18.80;99.90
6293;DHT22;3179;54.350;10.102;2023-08-17T07:14:50;18.80;99.90
6293;DHT22;3179;54.350;10.102;2023-08-17T07:17:17;18.80;99.90
6293;DHT22;3179;54.350;10.102;2023-08-17T07:19:44;18.80;99.90
6293;DHT22;3179;54.350;10.102;2023-08-17T07:22:12;18.80;99.90
6293;DHT22;3179;54.350;10.102;2023-08-17T07:24:39;18.80;99.90
6293;DHT22;3179;54.350;10.102;2023-08-17T07:27:05;18.80;99.90
6293;DHT22;3179;54.350;10.102;2023-08-17T07:29:38;18.80;99.90
6293;DHT22;3179;54.350;10.102;2023-08-17T07:32:05;18.80;99.90
6293;DHT22;3179;54.350;10.102;2023-08-17T07:34:32;18.80;99.90
6293;DHT22;3179;54.350;10.102;2023-08-17T07:36:59;18.80;99.90
6293;DHT22;3179;54.350;10.102;2023-08-17T07:39:27;18.80;99.90
6293;DHT22;3179;54.350;10.102;2023-08-17T07:41:54;18.80;99.90
6293;DHT22;3179;54.350;10.102;2023-08-17T07:44:21;18.80;99.90
6293;DHT22;3179;54.350;10.102;2023-08-17T07:46:48;18.80;99.90
6293;DHT22;3179;54.350;10.102;2023-08-17T07:49:14;18.80;99.90
6293;DHT22;3179;54.350;10.102;2023-08-17T07:51:42;18.80;99.90
6293;DHT22;3179;54.350;10.102;2023-08-17T07:54:08;18.80;99.90
6293;DHT22;3179;54.350;10.102;2023-08-17T07:56:36;18.90;99.90
6293;DHT22;3179;54.350;10.102;2023-08-17T07:59:03;18.90;99.90
6293;DHT22;3179;54.350;10.102;2023-08-17T08:01:30;18.90;99.90
6293;DHT22;3179;54.350;10.102;2023-08-17T08:03:57;18.90;99.90
6293;DHT22;3179;54.350;10.102;2023-08-17T08:06:24;18.90;99.90
6293;DHT22;3179;54.350;10.102;2023-08-17T08:08:50;19.00;99.90
6293;DHT22;3179;54.350;10.102;2023-08-17T08:11:17;19.00;99.90
6293;DHT22;3179;54.350;10.102;2023-08-17T08:13:45;19.00;99.90
6293;DHT22;3179;54.350;10.102;2023-08-17T08:16:12;19.10;99.90
6293;DHT22;3179;54.350;10.102;2023-08-17T08:18:39;19.10;99.90
6293;DHT22;3179;54.350;10.102;2023-08-17T08:21:05;19.10;99.90
6293;DHT22;3179;54.350;10.102;2023-08-17T08:23:32;19.10;99.90
6293;DHT22;3179;54.350;10.102;2023-08-17T08:25:59;19.10;99.90
6293;DHT22;3179;54.350;10.102;2023-08-17T08:28:26;19.20;99.90
6293;DHT22;3179;54.350;10.102;2023-08-17T08:30:54;19.20;99.90
6293;DHT22;3179;54.350;10.102;2023-08-17T08:33:21;19.20;99.90
6293;DHT22;3179;54.350;10.102;2023-08-17T08:35:47;19.20;99.90
6293;DHT22;3179;54.350;10.102;2023-08-17T08:38:14;19.20;99.90
6293;DHT22;3179;54.350;10.102;2023-08-17T08:40:41;19.20;99.90
6293;DHT22;3179;54.350;10.102;2023-08-17T08:43:08;19.20;99.90
6293;DHT22;3179;54.350;10.102;2023-08-17T08:45:35;19.20;99.90
6293;DHT22;3179;54.350;10.102;2023-08-17T08:48:05;19.20;99.90
6293;DHT22;3179;54.350;10.102;2023-08-17T08:50:35;19.20;99.90
6293;DHT22;3179;54.350;10.102;2023-08-17T08:53:03;19.20;99.90
6293;DHT22;3179;54.350;10.102;2023-08-17T08:55:37;19.20;99.90
6293;DHT22;3179;54.350;10.102;2023-08-17T08:58:04;19.30;99.90
6293;DHT22;3179;54.350;10.102;2023-08-17T09:00:31;19.20;99.90
6293;DHT22;3179;54.350;10.102;2023-08-17T09:02:59;19.20;99.90
6293;DHT22;3179;54.350;10.102;2023-08-17T09:05:31;19.20;99.90
6293;DHT22;3179;54.350;10.102;2023-08-17T09:08:00;19.20;99.90
6293;DHT22;3179;54.350;10.102;2023-08-17T09:10:28;19.30;99.90
6293;DHT22;3179;54.350;10.102;2023-08-17T09:12:55;19.20;99.90
6293;DHT22;3179;54.350;10.102;2023-08-17T09:15:22;19.20;99.90
6293;DHT22;3179;54.350;10.102;2023-08-17T09:17:49;19.20;99.90
6293;DHT22;3179;54.350;10.102;2023-08-17T09:20:39;19.20;99.90
6293;DHT22;3179;54.350;10.102;2023-08-17T09:23:12;19.20;99.90
6293;DHT22;3179;54.350;10.102;2023-08-17T09:25:40;19.20;99.90
6293;DHT22;3179;54.350;10.102;2023-08-17T09:28:08;19.20;99.90
6293;DHT22;3179;54.350;10.102;2023-08-17T09:30:49;19.20;99.90
6293;DHT22;3179;54.350;10.102;2023-08-17T09:33:17;19.20;99.90
6293;DHT22;3179;54.350;10.102;2023-08-17T09:35:45;19.20;99.90
6293;DHT22;3179;54.350;10.102;2023-08-17T09:38:12;19.20;99.90
6293;DHT22;3179;54.350;10.102;2023-08-17T09:40:39;19.20;99.90
6293;DHT22;3179;54.350;10.102;2023-08-17T09:43:06;19.20;99.90
6293;DHT22;3179;54.350;10.102;2023-08-17T09:45:33;19.20;99.90
6293;DHT22;3179;54.350;10.102;2023-08-17T09:48:00;19.20;99.90
6293;DHT22;3179;54.350;10.102;2023-08-17T09:50:27;19.20;99.90
6293;DHT22;3179;54.350;10.102;2023-08-17T09:52:55;19.20;99.90
6293;DHT22;3179;54.350;10.102;2023-08-17T09:55:22;19.20;99.90
6293;DHT22;3179;54.350;10.102;2023-08-17T09:57:49;19.20;99.90
6293;DHT22;3179;54.350;10.102;2023-08-17T10:00:17;19.20;99.90
6293;DHT22;3179;54.350;10.102;2023-08-17T10:02:45;19.20;99.90
6293;DHT22;3179;54.350;10.102;2023-08-17T10:05:12;19.20;99.90
6293;DHT22;3179;54.350;10.102;2023-08-17T10:07:43;19.20;99.90
6293;DHT22;3179;54.350;10.102;2023-08-17T10:10:12;19.20;99.90
6293;DHT22;3179;54.350;10.102;2023-08-17T10:12:44;19.20;99.90
6293;DHT22;3179;54.350;10.102;2023-08-17T10:15:13;19.20;99.90
6293;DHT22;3179;54.350;10.102;2023-08-17T10:17:45;19.20;99.90
6293;DHT22;3179;54.350;10.102;2023-08-17T10:20:14;19.20;99.90
6293;DHT22;3179;54.350;10.102;2023-08-17T10:22:46;19.20;99.90
6293;DHT22;3179;54.350;10.102;2023-08-17T10:25:16;19.20;99.90
6293;DHT22;3179;54.350;10.102;2023-08-17T10:27:43;19.20;99.90
6293;DHT22;3179;54.350;10.102;2023-08-17T10:30:11;19.20;99.90
6293;DHT22;3179;54.350;10.102;2023-08-17T10:32:38;19.20;99.90
6293;DHT22;3179;54.350;10.102;2023-08-17T10:35:07;19.20;99.90
6293;DHT22;3179;54.350;10.102;2023-08-17T10:37:34;19.20;99.90
6293;DHT22;3179;54.350;10.102;2023-08-17T10:40:01;19.20;99.90
6293;DHT22;3179;54.350;10.102;2023-08-17T10:42:34;19.20;99.90
6293;DHT22;3179;54.350;10.102;2023-08-17T10:45:02;19.20;99.90
6293;DHT22;3179;54.350;10.102;2023-08-17T10:47:48;19.20;99.90
6293;DHT22;3179;54.350;10.102;2023-08-17T10:50:21;19.20;99.90
6293;DHT22;3179;54.350;10.102;2023-08-17T10:52:49;19.20;99.90
6293;DHT22;3179;54.350;10.102;2023-08-17T10:55:16;19.20;99.90
6293;DHT22;3179;54.350;10.102;2023-08-17T10:57:45;19.20;99.90
6293;DHT22;3179;54.350;10.102;2023-08-17T11:00:17;19.20;99.90
6293;DHT22;3179;54.350;10.102;2023-08-17T11:02:53;19.20;99.90
6293;DHT22;3179;54.350;10.102;2023-08-17T11:05:40;19.30;99.90
6293;DHT22;3179;54.350;10.102;2023-08-17T11:08:08;19.30;99.90
6293;DHT22;3179;54.350;10.102;2023-08-17T11:10:35;19.30;99.90
6293;DHT22;3179;54.350;10.102;2023-08-17T11:13:05;19.30;99.90
6293;DHT22;3179;54.350;10.102;2023-08-17T11:15:36;19.30;99.90
6293;DHT22;3179;54.350;10.102;2023-08-17T11:18:08;19.40;99.90
6293;DHT22;3179;54.350;10.102;2023-08-17T11:20:37;19.40;99.90
6293;DHT22;3179;54.350;10.102;2023-08-17T11:23:04;19.40;99.90
6293;DHT22;3179;54.350;10.102;2023-08-17T11:25:32;19.40;99.90
6293;DHT22;3179;54.350;10.102;2023-08-17T11:28:00;19.40;99.90
6293;DHT22;3179;54.350;10.102;2023-08-17T11:30:29;19.40;99.90
6293;DHT22;3179;54.350;10.102;2023-08-17T11:32:56;19.50;99.90
6293;DHT22;3179;54.350;10.102;2023-08-17T11:35:23;19.50;99.90
6293;DHT22;3179;54.350;10.102;2023-08-17T11:37:50;19.50;99.90
6293;DHT22;3179;54.350;10.102;2023-08-17T11:40:17;19.50;99.90
6293;DHT22;3179;54.350;10.102;2023-08-17T11:42:45;19.50;99.90
6293;DHT22;3179;54.350;10.102;2023-08-17T11:45:13;19.50;99.90
6293;DHT22;3179;54.350;10.102;2023-08-17T11:47:42;19.50;99.90
6293;DHT22;3179;54.350;10.102;2023-08-17T11:50:10;19.60;99.90
6293;DHT22;3179;54.350;10.102;2023-08-17T11:52:40;19.70;99.90
6293;DHT22;3179;54.350;10.102;2023-08-17T11:55:09;19.70;99.90
6293;DHT22;3179;54.350;10.102;2023-08-17T11:57:36;19.80;99.90
6293;DHT22;3179;54.350;10.102;2023-08-17T12:00:05;19.90;99.90
6293;DHT22;3179;54.350;10.102;2023-08-17T12:02:32;19.90;99.90
6293;DHT22;3179;54.350;10.102;2023-08-17T12:05:05;20.00;99.90
6293;DHT22;3179;54.350;10.102;2023-08-17T12:07:32;20.00;99.90
6293;DHT22;3179;54.350;10.102;2023-08-17T12:09:59;20.00;99.90
6293;DHT22;3179;54.350;10.102;2023-08-17T12:12:26;20.00;99.90
6293;DHT22;3179;54.350;10.102;2023-08-17T12:14:54;20.00;99.90
6293;DHT22;3179;54.350;10.102;2023-08-17T12:17:21;19.90;99.90
6293;DHT22;3179;54.350;10.102;2023-08-17T12:19:49;19.90;99.90
6293;DHT22;3179;54.350;10.102;2023-08-17T12:22:17;20.00;99.90
6293;DHT22;3179;54.350;10.102;2023-08-17T12:24:44;19.90;99.90
6293;DHT22;3179;54.350;10.102;2023-08-17T12:27:11;20.00;99.90
6293;DHT22;3179;54.350;10.102;2023-08-17T12:29:46;19.90;99.90
6293;DHT22;3179;54.350;10.102;2023-08-17T12:32:14;19.90;99.90
6293;DHT22;3179;54.350;10.102;2023-08-17T12:34:41;19.90;99.90
6293;DHT22;3179;54.350;10.102;2023-08-17T12:37:08;19.90;99.90
6293;DHT22;3179;54.350;10.102;2023-08-17T12:39:37;19.90;99.90
6293;DHT22;3179;54.350;10.102;2023-08-17T12:42:05;19.90;99.90
6293;DHT22;3179;54.350;10.102;2023-08-17T12:44:32;19.80;99.90
6293;DHT22;3179;54.350;10.102;2023-08-17T12:46:59;19.80;99.90
6293;DHT22;3179;54.350;10.102;2023-08-17T12:49:26;19.80;99.90
6293;DHT22;3179;54.350;10.102;2023-08-17T12:51:52;19.80;99.90
6293;DHT22;3179;54.350;10.102;2023-08-17T12:54:19;19.80;99.90
6293;DHT22;3179;54.350;10.102;2023-08-17T12:56:47;19.80;99.90
6293;DHT22;3179;54.350;10.102;2023-08-17T12:59:14;19.80;99.90
6293;DHT22;3179;54.350;10.102;2023-08-17T13:01:41;19.80;99.90
6293;DHT22;3179;54.350;10.102;2023-08-17T13:04:08;19.80;99.90
6293;DHT22;3179;54.350;10.102;2023-08-17T13:06:35;19.90;99.90
6293;DHT22;3179;54.350;10.102;2023-08-17T13:09:02;19.90;99.90
6293;DHT22;3179;54.350;10.102;2023-08-17T13:11:28;19.90;99.90
6293;DHT22;3179;54.350;10.102;2023-08-17T13:13:57;19.90;99.90
6293;DHT22;3179;54.350;10.102;2023-08-17T13:16:23;20.00;99.90
6293;DHT22;3179;54.350;10.102;2023-08-17T13:18:50;19.90;99.90
6293;DHT22;3179;54.350;10.102;2023-08-17T13:21:17;19.90;99.90
6293;DHT22;3179;54.350;10.102;2023-08-17T13:23:45;19.80;99.90
6293;DHT22;3179;54.350;10.102;2023-08-17T13:26:12;19.80;99.90
6293;DHT22;3179;54.350;10.102;2023-08-17T13:28:38;19.80;99.90
6293;DHT22;3179;54.350;10.102;2023-08-17T13:31:07;19.70;99.90
6293;DHT22;3179;54.350;10.102;2023-08-17T13:33:33;19.70;99.90
6293;DHT22;3179;54.350;10.102;2023-08-17T13:36:00;19.70;99.90
6293;DHT22;3179;54.350;10.102;2023-08-17T13:38:27;19.70;99.90
6293;DHT22;3179;54.350;10.102;2023-08-17T13:40:54;19.60;99.90
6293;DHT22;3179;54.350;10.102;2023-08-17T13:43:21;19.60;99.90
6293;DHT22;3179;54.350;10.102;2023-08-17T13:45:48;19.60;99.90
6293;DHT22;3179;54.350;10.102;2023-08-17T13:48:16;19.60;99.90
6293;DHT22;3179;54.350;10.102;2023-08-17T13:50:43;19.60;99.90
6293;DHT22;3179;54.350;10.102;2023-08-17T13:53:10;19.50;99.90
6293;DHT22;3179;54.350;10.102;2023-08-17T13:55:37;19.50;99.90
6293;DHT22;3179;54.350;10.102;2023-08-17T13:58:04;19.50;99.90
6293;DHT22;3179;54.350;10.102;2023-08-17T14:00:31;19.50;99.90
6293;DHT22;3179;54.350;10.102;2023-08-17T14:02:57;19.50;99.90
6293;DHT22;3179;54.350;10.102;2023-08-17T14:05:25;19.40;99.90
6293;DHT22;3179;54.350;10.102;2023-08-17T14:07:52;19.40;99.90
6293;DHT22;3179;54.350;10.102;2023-08-17T14:10:20;19.40;99.90
6293;DHT22;3179;54.350;10.102;2023-08-17T14:12:46;19.40;99.90
6293;DHT22;3179;54.350;10.102;2023-08-17T14:15:13;19.40;99.90
6293;DHT22;3179;54.350;10.102;2023-08-17T14:17:40;19.40;99.90
6293;DHT22;3179;54.350;10.102;2023-08-17T14:20:09;19.40;99.90
6293;DHT22;3179;54.350;10.102;2023-08-17T14:22:38;19.40;99.90
6293;DHT22;3179;54.350;10.102;2023-08-17T14:25:05;19.40;99.90
6293;DHT22;3179;54.350;10.102;2023-08-17T14:27:32;19.30;99.90
6293;DHT22;3179;54.350;10.102;2023-08-17T14:29:59;19.40;99.90
6293;DHT22;3179;54.350;10.102;2023-08-17T14:32:27;19.30;99.90
6293;DHT22;3179;54.350;10.102;2023-08-17T14:34:54;19.40;99.90
6293;DHT22;3179;54.350;10.102;2023-08-17T14:37:21;19.30;99.90
6293;DHT22;3179;54.350;10.102;2023-08-17T14:39:49;19.30;99.90
6293;DHT22;3179;54.350;10.102;2023-08-17T14:42:15;19.30;99.90
6293;DHT22;3179;54.350;10.102;2023-08-17T14:44:42;19.30;99.90
6293;DHT22;3179;54.350;10.102;2023-08-17T14:47:09;19.30;99.90
6293;DHT22;3179;54.350;10.102;2023-08-17T14:49:36;19.30;99.90
6293;DHT22;3179;54.350;10.102;2023-08-17T14:52:03;19.30;99.90
6293;DHT22;3179;54.350;10.102;2023-08-17T14:54:30;19.30;99.90
6293;DHT22;3179;54.350;10.102;2023-08-17T14:56:58;19.30;99.90
6293;DHT22;3179;54.350;10.102;2023-08-17T14:59:24;19.30;99.90
6293;DHT22;3179;54.350;10.102;2023-08-17T15:01:51;19.30;99.90
6293;DHT22;3179;54.350;10.102;2023-08-17T15:04:21;19.30;99.90
6293;DHT22;3179;54.350;10.102;2023-08-17T15:06:48;19.30;99.90
6293;DHT22;3179;54.350;10.102;2023-08-17T15:09:14;19.30;99.90
6293;DHT22;3179;54.350;10.102;2023-08-17T15:11:41;19.30;99.90
6293;DHT22;3179;54.350;10.102;2023-08-17T15:14:09;19.30;99.90
6293;DHT22;3179;54.350;10.102;2023-08-17T15:16:36;19.30;99.90
6293;DHT22;3179;54.350;10.102;2023-08-17T15:19:03;19.30;99.90
6293;DHT22;3179;54.350;10.102;2023-08-17T15:21:30;19.40;99.90
6293;DHT22;3179;54.350;10.102;2023-08-17T15:23:57;19.30;99.90
6293;DHT22;3179;54.350;10.102;2023-08-17T15:26:24;19.40;99.90
6293;DHT22;3179;54.350;10.102;2023-08-17T15:28:50;19.30;99.90
6293;DHT22;3179;54.350;10.102;2023-08-17T15:31:18;19.30;99.90
6293;DHT22;3179;54.350;10.102;2023-08-17T15:33:45;19.30;99.90
6293;DHT22;3179;54.350;10.102;2023-08-17T15:36:13;19.30;99.90
6293;DHT22;3179;54.350;10.102;2023-08-17T15:38:43;19.30;99.90
6293;DHT22;3179;54.350;10.102;2023-08-17T15:41:10;19.40;99.90
6293;DHT22;3179;54.350;10.102;2023-08-17T15:43:37;19.40;99.90
6293;DHT22;3179;54.350;10.102;2023-08-17T15:46:04;19.30;99.90
6293;DHT22;3179;54.350;10.102;2023-08-17T15:48:33;19.30;99.90